Time;durP1;ratioP1;P1;durP2;ratioP2;P2;SDS_P1;SDS_P2;PMS_P1;PMS_P2;Temp;Humidity;BMP_temperature;BMP_pressure;BME280_temperature;BME280_humidity;BME280_pressure;Samples;Min_cycle;Max_cycle;Signal;HPM_P1;HPM_P2
2023/03/20 00:01:57;;;;;;;7.23;5.13;;;;;;;10.79;73.09;99019.50;5091449;28;41036;-81
2023/03/20 00:04:28;;;;;;;5.73;4.40;;;;;;;10.72;72.65;99001.44;5091598;28;39236;-81
2023/03/20 00:06:56;;;;;;;7.00;5.00;;;;;;;10.69;72.28;98998.97;5074142;28;40645;-81
2023/03/20 00:09:25;;;;;;;5.87;4.40;;;;;;;10.79;72.25;99016.00;5091265;28;43237;-81
2023/03/20 00:11:55;;;;;;;6.03;4.20;;;;;;;10.74;72.26;99021.59;5091026;28;42222;-80
2023/03/20 00:14:25;;;;;;;4.90;4.17;;;;;;;10.67;71.89;99003.50;5077655;28;39016;-81
2023/03/20 00:16:53;;;;;;;5.23;4.73;;;;;;;10.75;72.10;99011.84;5094778;28;41846;-81
2023/03/20 00:19:23;;;;;;;5.10;4.40;;;;;;;10.75;72.45;99009.19;5095041;28;41615;-81
2023/03/20 00:21:53;;;;;;;6.57;4.60;;;;;;;10.79;72.70;99013.34;5094237;28;42259;-81
2023/03/20 00:24:22;;;;;;;5.33;4.80;;;;;;;10.79;73.56;99013.34;5091827;28;39927;-81
2023/03/20 00:26:51;;;;;;;5.77;5.03;;;;;;;10.77;73.99;99001.97;5077743;28;40594;-81
2023/03/20 00:29:22;;;;;;;8.67;6.23;;;;;;;10.70;74.04;98987.41;5077888;28;43138;-83
2023/03/20 00:31:50;;;;;;;6.93;4.57;;;;;;;10.72;74.58;98985.53;5091965;28;42313;-81
2023/03/20 00:34:21;;;;;;;8.43;5.37;;;;;;;10.76;74.44;99000.28;5077926;28;40835;-82
2023/03/20 00:36:49;;;;;;;7.33;5.20;;;;;;;10.65;74.20;98978.88;5094407;28;40964;-81
2023/03/20 00:39:18;;;;;;;7.53;5.83;;;;;;;10.85;74.01;99015.63;5077559;28;41978;-81
2023/03/20 00:41:50;;;;;;;5.83;4.83;;;;;;;10.92;74.24;99022.25;5094119;28;41548;-81
2023/03/20 00:44:24;;;;;;;6.37;5.73;;;;;;;10.81;75.14;98987.63;5077972;28;38914;-81
2023/03/20 00:46:54;;;;;;;9.30;6.07;;;;;;;10.86;74.82;98993.50;5092462;28;41735;-81
2023/03/20 00:49:26;;;;;;;6.47;5.07;;;;;;;10.89;74.36;99003.03;5077523;28;42695;-82
2023/03/20 00:51:55;;;;;;;8.10;5.67;;;;;;;10.99;74.10;99020.09;5077589;28;41226;-81
2023/03/20 00:54:24;;;;;;;5.93;5.10;;;;;;;10.91;73.48;98996.69;5077364;28;39767;-81
2023/03/20 00:56:56;;;;;;;4.83;4.40;;;;;;;10.92;73.33;98995.75;5093892;28;40897;-82
2023/03/20 00:59:27;;;;;;;4.90;4.40;;;;;;;10.99;73.27;99007.69;5077407;28;41555;-81
2023/03/20 01:01:57;;;;;;;5.93;4.33;;;;;;;10.91;73.17;99004.66;5094062;28;41324;-81
2023/03/20 01:04:28;;;;;;;4.70;4.03;;;;;;;11.05;73.08;99027.66;5077247;28;38901;-82
2023/03/20 01:06:55;;;;;;;5.17;4.37;;;;;;;10.91;73.26;99015.25;5076890;28;40481;-82
2023/03/20 01:09:25;;;;;;;4.60;4.20;;;;;;;11.04;72.60;99026.78;5093844;28;42776;-81
2023/03/20 01:11:53;;;;;;;6.67;4.53;;;;;;;10.73;72.83;98974.00;5094872;28;42228;-81
2023/03/20 01:14:21;;;;;;;4.10;3.63;;;;;;;10.95;72.51;99011.47;5077298;28;39026;-81
2023/03/20 01:16:49;;;;;;;4.23;3.80;;;;;;;10.95;72.45;99003.53;5076602;28;40767;-80
2023/03/20 01:19:16;;;;;;;4.23;3.40;;;;;;;11.07;72.62;99031.06;5077055;28;41979;-81
2023/03/20 01:21:44;;;;;;;4.00;3.57;;;;;;;11.04;72.24;99032.09;5076194;28;41311;-81
2023/03/20 01:24:12;;;;;;;5.27;3.80;;;;;;;10.94;72.06;99012.41;5089677;28;41254;-81
2023/03/20 01:26:43;;;;;;;3.90;3.33;;;;;;;11.00;72.03;99030.56;5093664;28;42436;-81
2023/03/20 01:29:18;;;;;;;4.90;3.97;;;;;;;10.93;71.83;99029.25;5077157;28;42772;-81
2023/03/20 01:31:46;;;;;;;5.77;4.13;;;;;;;10.91;72.75;99036.44;5091258;28;42435;-81
2023/03/20 01:34:15;;;;;;;4.97;4.13;;;;;;;10.86;72.70;99038.53;5076690;28;40417;-81
2023/03/20 01:36:48;;;;;;;6.80;4.30;;;;;;;10.82;72.61;99039.66;5076646;28;41908;-81
2023/03/20 01:39:17;;;;;;;6.83;4.43;;;;;;;10.64;73.88;99012.47;5076894;28;41694;-81
2023/03/20 01:41:48;;;;;;;4.90;4.20;;;;;;;10.73;74.39;99033.13;5076279;28;41101;-81
2023/03/20 01:44:21;;;;;;;6.23;4.03;;;;;;;10.65;74.48;99030.06;5083160;28;40221;-81
2023/03/20 01:46:52;;;;;;;4.70;4.30;;;;;;;10.66;75.11;99025.63;5105121;28;41481;-80
2023/03/20 01:49:58;;;;;;;5.33;3.73;;;;;;;10.68;75.09;99039.63;5090691;28;43019;-81
2023/03/20 01:52:26;;;;;;;5.63;4.20;;;;;;;10.64;74.69;99038.09;5093296;28;42440;-81
2023/03/20 01:54:54;;;;;;;4.70;4.17;;;;;;;10.57;74.93;99039.41;5076565;28;40115;-81
2023/03/20 01:57:25;;;;;;;5.43;3.80;;;;;;;10.56;74.70;99041.22;5075877;28;41088;-80
2023/03/20 02:00:00;;;;;;;5.17;3.67;;;;;;;10.53;74.75;99045.84;5090394;28;42988;-81
2023/03/20 02:02:31;;;;;;;4.07;3.40;;;;;;;10.38;74.58;99029.94;5091958;28;42242;-81
2023/03/20 02:05:04;;;;;;;6.00;4.47;;;;;;;10.36;75.21;99031.81;5090254;28;40871;-81
2023/03/20 02:07:34;;;;;;;4.20;3.83;;;;;;;10.34;75.71;99041.63;5076069;28;41737;-81
2023/03/20 02:10:05;;;;;;;4.87;3.87;;;;;;;10.22;75.57;99042.34;5076296;28;41817;-81
2023/03/20 02:12:54;;;;;;;4.97;3.60;;;;;;;10.18;75.68;99045.22;5093141;28;41991;-81
2023/03/20 02:15:36;;;;;;;5.50;4.23;;;;;;;10.15;76.08;99056.84;5076123;28;39932;-81
2023/03/20 02:18:14;;;;;;;4.00;3.60;;;;;;;10.09;76.20;99047.47;5076381;28;40663;-81
2023/03/20 02:20:58;;;;;;;3.80;3.40;;;;;;;9.96;76.50;99035.88;5075997;28;41683;-82
2023/03/20 02:24:02;;;;;;;3.87;3.30;;;;;;;10.06;76.39;99052.06;5092239;28;42532;-81
2023/03/20 02:26:50;;;;;;;3.30;2.90;;;;;;;10.03;77.11;99046.94;5022662;28;39133;-81
2023/03/20 02:29:52;;;;;;;7.40;3.63;;;;;;;10.12;77.26;99053.53;5089961;28;42528;-80
2023/03/20 02:33:06;;;;;;;3.70;3.37;;;;;;;10.15;77.38;99059.47;5075437;28;41824;-81
2023/03/20 02:36:14;;;;;;;3.20;2.90;;;;;;;10.07;77.44;99043.19;5075897;28;41088;-81
2023/03/20 02:39:20;;;;;;;3.17;2.87;;;;;;;10.19;77.02;99061.03;5092802;28;39979;-81
2023/03/20 02:41:56;;;;;;;3.33;2.97;;;;;;;10.20;76.48;99049.53;4998505;28;40845;-80
2023/03/20 02:44:32;;;;;;;4.73;2.87;;;;;;;10.28;76.29;99057.88;5065934;28;41646;-81
2023/03/20 02:47:08;;;;;;;3.07;2.63;;;;;;;10.19;76.32;99046.97;5075386;28;41568;-81
2023/03/20 02:50:05;;;;;;;3.37;3.07;;;;;;;10.20;76.32;99052.16;5076044;28;38955;-81
2023/03/20 02:52:43;;;;;;;3.20;2.90;;;;;;;10.10;76.81;99048.31;5089450;28;40941;-81
2023/03/20 02:55:20;;;;;;;4.23;3.40;;;;;;;10.05;76.71;99055.66;5075818;28;43158;-82
2023/03/20 02:57:55;;;;;;;3.47;3.17;;;;;;;10.03;76.51;99054.88;5075446;28;41258;-81
2023/03/20 03:00:28;;;;;;;2.83;2.50;;;;;;;10.01;77.11;99051.50;5075517;28;38866;-81
2023/03/20 03:03:06;;;;;;;3.33;2.90;;;;;;;9.99;77.09;99050.72;5074980;28;40976;-81
2023/03/20 03:05:38;;;;;;;4.37;3.10;;;;;;;9.91;77.79;99048.50;5075898;28;41841;-81
2023/03/20 03:08:12;;;;;;;3.60;3.23;;;;;;;9.89;77.30;99046.91;5074995;28;41518;-81
2023/03/20 03:10:45;;;;;;;4.93;4.17;;;;;;;9.84;77.94;99044.50;5075916;28;39764;-81
2023/03/20 03:13:18;;;;;;;4.60;3.07;;;;;;;9.92;78.01;99054.66;5075747;28;41702;-81
2023/03/20 03:15:49;;;;;;;3.37;2.80;;;;;;;9.81;77.69;99036.75;5089333;28;42869;-81
2023/03/20 03:18:20;;;;;;;3.20;2.90;;;;;;;9.90;78.61;99045.94;5074779;28;42226;-81
2023/03/20 03:20:52;;;;;;;3.07;2.77;;;;;;;9.94;78.55;99048.34;5075623;28;38901;-81
2023/03/20 03:23:28;;;;;;;5.17;3.90;;;;;;;10.03;79.79;99057.53;5074852;28;40749;-81
2023/03/20 03:26:01;;;;;;;3.50;3.00;;;;;;;10.08;78.92;99055.50;5075520;28;41838;-81
2023/03/20 03:28:37;;;;;;;2.90;2.53;;;;;;;10.01;78.08;99048.84;5074780;28;42172;-81
2023/03/20 03:31:08;;;;;;;3.40;3.10;;;;;;;10.07;78.03;99067.00;5089117;28;40244;-81
2023/03/20 03:33:39;;;;;;;3.63;3.23;;;;;;;10.18;78.11;99071.69;5074837;28;41545;-81
2023/03/20 03:36:18;;;;;;;3.07;2.77;;;;;;;10.21;78.13;99072.41;5075157;28;43472;-82
2023/03/20 03:38:55;;;;;;;3.47;3.17;;;;;;;10.16;77.81;99061.19;5088674;28;42233;-81
2023/03/20 03:41:31;;;;;;;4.50;4.10;;;;;;;10.18;77.67;99056.69;5091975;28;38884;-81
2023/03/20 03:44:08;;;;;;;3.87;3.53;;;;;;;10.28;77.64;99063.16;5074738;28;40729;-81
2023/03/20 03:46:42;;;;;;;5.27;4.77;;;;;;;10.30;78.16;99063.94;5075056;28;42116;-81
2023/03/20 03:49:15;;;;;;;4.93;4.43;;;;;;;10.34;77.87;99067.25;5088327;28;42360;-81
2023/03/20 03:51:48;;;;;;;6.07;5.13;;;;;;;10.25;78.63;99046.63;5089548;28;40269;-81
2023/03/20 03:54:20;;;;;;;5.10;4.70;;;;;;;10.34;78.42;99056.66;5074941;28;40852;-81
2023/03/20 03:57:09;;;;;;;7.07;6.37;;;;;;;10.30;78.16;99049.84;5074357;28;44244;-81
2023/03/20 03:59:41;;;;;;;5.43;4.93;;;;;;;10.30;77.71;99049.84;5091664;28;42482;-81
2023/03/20 04:02:09;;;;;;;7.30;6.30;;;;;;;10.36;77.45;99060.09;5074481;28;40229;-81
2023/03/20 04:04:46;;;;;;;7.33;6.63;;;;;;;10.48;77.42;99080.53;5074537;28;41631;-81
2023/03/20 04:07:15;;;;;;;9.93;6.77;;;;;;;10.31;78.05;99055.03;5074519;28;42975;-81
2023/03/20 04:09:42;;;;;;;9.07;8.17;;;;;;;10.46;78.03;99081.56;5074318;28;41260;-81
2023/03/20 04:12:35;;;;;;;8.53;7.60;;;;;;;10.37;78.32;99062.66;5090944;28;39623;-81
2023/03/20 04:15:05;;;;;;;7.37;6.30;;;;;;;10.37;77.96;99070.59;5071591;28;40663;-81
2023/03/20 04:17:34;;;;;;;8.33;6.97;;;;;;;10.43;77.66;99072.00;5074059;28;41712;-81
2023/03/20 04:20:03;;;;;;;7.63;6.90;;;;;;;10.50;77.77;99086.63;5091300;28;42446;-80
2023/03/20 04:22:33;;;;;;;8.83;7.73;;;;;;;10.39;78.38;99071.31;5073702;28;39812;-80
2023/03/20 04:25:07;;;;;;;10.00;8.50;;;;;;;10.49;78.08;99092.84;5073865;28;41009;-81
2023/03/20 04:27:37;;;;;;;8.90;8.00;;;;;;;10.53;78.22;99088.19;5090905;28;42863;-81
2023/03/20 04:30:13;;;;;;;9.70;8.70;;;;;;;10.54;78.14;99104.00;5074724;28;41186;-81
2023/03/20 04:32:59;;;;;;;11.13;9.33;;;;;;;10.55;78.23;99097.75;5091065;28;39281;-81
2023/03/20 04:35:35;;;;;;;9.70;8.70;;;;;;;10.56;78.90;99098.63;5077971;28;40669;-81
2023/03/20 04:38:08;;;;;;;11.37;10.00;;;;;;;10.54;78.43;99105.78;5088394;28;42285;-80
2023/03/20 04:40:36;;;;;;;11.53;10.40;;;;;;;10.56;78.91;99109.22;5094420;28;42897;-81
2023/03/20 04:43:06;;;;;;;9.90;8.90;;;;;;;10.50;78.36;99093.69;5073817;28;38702;-81
2023/03/20 04:45:33;;;;;;;12.40;10.73;;;;;;;10.52;78.98;99097.09;5074033;28;41112;-81
2023/03/20 04:48:02;;;;;;;13.50;10.67;;;;;;;10.57;78.84;99106.47;5073565;28;42076;-81
2023/03/20 04:50:30;;;;;;;11.80;10.47;;;;;;;10.55;78.82;99104.84;5073506;28;41459;-81
2023/03/20 04:52:59;;;;;;;12.23;10.60;;;;;;;10.54;78.80;99098.72;5090534;28;40029;-81
2023/03/20 04:55:27;;;;;;;13.33;10.30;;;;;;;10.53;79.15;99098.78;5074036;28;42351;-81
2023/03/20 04:57:55;;;;;;;11.30;10.03;;;;;;;10.54;79.65;99098.72;5090529;28;42777;-81
2023/03/20 05:00:26;;;;;;;10.70;9.63;;;;;;;10.58;78.90;99107.34;5075728;28;41176;-81
2023/03/20 05:02:54;;;;;;;12.53;10.97;;;;;;;10.60;78.85;99111.59;5077159;28;40111;-81
2023/03/20 05:05:22;;;;;;;10.07;9.07;;;;;;;10.52;78.79;99095.28;5077615;28;41960;-81
2023/03/20 05:07:50;;;;;;;11.73;10.30;;;;;;;10.64;78.42;99122.84;5076874;28;43598;-81
2023/03/20 05:10:26;;;;;;;11.13;10.03;;;;;;;10.61;78.83;99107.16;5091402;28;42011;-81
2023/03/20 05:13:00;;;;;;;12.03;10.30;;;;;;;10.50;78.61;99094.56;5093358;28;40056;-80
2023/03/20 05:15:52;;;;;;;12.13;10.57;;;;;;;10.73;78.55;99124.97;5088196;28;42161;-81
2023/03/20 05:18:31;;;;;;;11.47;9.57;;;;;;;10.74;78.35;99127.53;5076548;28;41762;-81
2023/03/20 05:21:29;;;;;;;9.40;8.40;;;;;;;10.79;77.96;99132.56;5057597;28;41222;-81
2023/03/20 05:24:12;;;;;;;9.77;8.20;;;;;;;10.69;77.74;99115.50;5076870;28;38849;-82
2023/03/20 05:27:03;;;;;;;10.37;8.53;;;;;;;10.76;77.69;99122.13;5055758;28;40322;-82
2023/03/20 05:30:04;;;;;;;10.57;9.40;;;;;;;10.84;77.40;99119.06;5071033;28;41896;-83
2023/03/20 05:32:52;;;;;;;11.53;10.00;;;;;;;10.83;77.78;99118.19;5093470;28;42202;-82
2023/03/20 05:35:29;;;;;;;10.83;9.50;;;;;;;10.95;77.81;99128.06;5094066;28;39038;-81
2023/03/20 05:38:32;;;;;;;9.80;8.40;;;;;;;10.98;77.57;99133.19;5055262;28;40867;-82
2023/03/20 05:41:20;;;;;;;11.43;9.90;;;;;;;11.01;77.72;99129.47;5090469;28;41798;-82
2023/03/20 05:44:24;;;;;;;10.50;8.50;;;;;;;11.00;77.28;99128.63;5055156;28;42196;-82
2023/03/20 05:47:05;;;;;;;8.10;7.30;;;;;;;11.07;76.90;99137.06;5090566;28;42166;-81
2023/03/20 05:49:54;;;;;;;8.67;7.40;;;;;;;11.19;77.27;99148.75;5091573;28;41728;-81
2023/03/20 05:52:28;;;;;;;10.60;8.57;;;;;;;11.20;77.08;99147.78;5076139;28;42806;-82
2023/03/20 05:55:07;;;;;;;11.77;9.63;;;;;;;11.25;77.15;99151.03;5077116;28;41275;-81
2023/03/20 05:57:51;;;;;;;10.67;7.40;;;;;;;11.28;76.79;99145.53;5092536;28;40243;-81
2023/03/20 06:00:37;;;;;;;8.50;7.70;;;;;;;11.37;76.33;99155.59;5093004;28;40653;-82
2023/03/20 06:03:24;;;;;;;8.07;7.23;;;;;;;11.33;76.07;99138.16;5094191;28;42677;-82
2023/03/20 06:06:03;;;;;;;8.83;7.93;;;;;;;11.21;76.29;99107.09;5090095;28;42009;-82
2023/03/20 06:08:30;;;;;;;7.57;6.87;;;;;;;11.55;75.68;99161.56;5092847;28;39812;-82
2023/03/20 06:11:00;;;;;;;9.97;8.97;;;;;;;11.42;75.98;99132.28;5075671;28;40440;-82
2023/03/20 06:13:29;;;;;;;9.70;8.70;;;;;;;11.66;76.33;99157.28;5075946;28;43323;-82
2023/03/20 06:15:57;;;;;;;9.40;8.50;;;;;;;11.72;76.40;99156.91;5093139;28;43093;-82
2023/03/20 06:18:25;;;;;;;9.27;8.37;;;;;;;11.67;76.25;99137.75;5075861;28;38868;-81
2023/03/20 06:20:58;;;;;;;10.23;9.23;;;;;;;11.85;76.15;99147.28;5076475;28;41237;-82
2023/03/20 06:23:31;;;;;;;8.90;8.00;;;;;;;11.68;76.20;99107.63;5075373;28;43209;-82
2023/03/20 06:26:01;;;;;;;10.87;9.47;;;;;;;11.97;76.09;99143.00;5076385;28;42189;-82
2023/03/20 06:28:30;;;;;;;8.90;8.00;;;;;;;11.94;75.81;99123.75;5075765;28;40061;-82
2023/03/20 06:31:03;;;;;;;9.37;8.47;;;;;;;12.12;75.92;99146.44;5089704;28;42110;-82
2023/03/20 06:33:31;;;;;;;10.17;8.97;;;;;;;12.19;75.66;99150.44;5075519;28;43189;-81
2023/03/20 06:36:01;;;;;;;9.10;8.30;;;;;;;12.24;75.75;99153.63;5075653;28;42175;-82
2023/03/20 06:38:33;;;;;;;9.13;8.00;;;;;;;12.34;75.36;99162.72;5092570;28;40962;-82
2023/03/20 06:41:08;;;;;;;8.67;7.70;;;;;;;12.34;75.21;99144.13;5075627;28;41994;-81
2023/03/20 06:43:38;;;;;;;8.87;7.97;;;;;;;12.35;75.09;99144.97;5092522;28;43500;-84
2023/03/20 06:46:07;;;;;;;7.07;6.37;;;;;;;12.48;75.02;99152.06;5075637;28;41284;-83
2023/03/20 06:48:35;;;;;;;7.40;6.70;;;;;;;12.50;74.51;99144.81;5092742;28;41082;-83
2023/03/20 06:51:07;;;;;;;7.77;7.07;;;;;;;12.67;74.23;99153.47;5075807;28;40671;-83
2023/03/20 06:53:43;;;;;;;8.13;7.33;;;;;;;12.73;74.04;99153.09;5089316;28;43344;-83
2023/03/20 06:56:17;;;;;;;8.60;7.73;;;;;;;12.69;73.93;99132.97;5075556;28;41102;-83
2023/03/20 06:58:46;;;;;;;6.73;6.13;;;;;;;12.85;73.80;99139.84;5075426;28;39403;-84
2023/03/20 07:01:18;;;;;;;7.17;6.57;;;;;;;12.99;73.60;99152.16;5074934;28;40888;-82
2023/03/20 07:03:47;;;;;;;7.23;6.63;;;;;;;13.13;72.99;99164.53;5074929;28;41694;-81
2023/03/20 07:06:20;;;;;;;7.30;6.67;;;;;;;13.11;72.84;99161.97;5075208;28;42264;-81
2023/03/20 07:08:50;;;;;;;6.30;5.70;;;;;;;12.78;72.83;99106.63;5074939;28;39777;-82
2023/03/20 07:11:18;;;;;;;6.50;5.93;;;;;;;13.05;72.63;99157.09;5074853;28;40431;-81
2023/03/20 07:13:46;;;;;;;6.00;5.40;;;;;;;13.18;72.44;99171.28;5074726;28;41647;-82
2023/03/20 07:16:25;;;;;;;6.63;6.03;;;;;;;13.04;72.10;99168.69;5074888;28;42243;-81
2023/03/20 07:18:53;;;;;;;6.47;5.40;;;;;;;13.11;72.52;99177.06;5075193;28;40295;-82
2023/03/20 07:21:23;;;;;;;5.90;5.40;;;;;;;12.92;72.36;99150.91;5074479;28;40751;-82
2023/03/20 07:23:52;;;;;;;6.90;6.20;;;;;;;13.01;72.53;99170.69;5073743;28;43065;-81
2023/03/20 07:26:20;;;;;;;6.27;5.57;;;;;;;12.89;72.27;99159.06;5091545;28;42024;-81
2023/03/20 07:28:48;;;;;;;7.27;6.67;;;;;;;12.93;72.40;99172.06;5106109;28;41398;-82
2023/03/20 07:31:27;;;;;;;5.77;5.17;;;;;;;12.93;73.00;99161.44;5092443;28;42250;-81
2023/03/20 07:34:18;;;;;;;5.73;5.23;;;;;;;13.08;72.50;99175.50;5089436;28;42684;-81
2023/03/20 07:36:47;;;;;;;6.23;5.63;;;;;;;13.12;72.14;99157.50;5075371;28;42454;-82
2023/03/20 07:39:20;;;;;;;6.03;5.53;;;;;;;13.27;71.83;99161.81;5089544;28;41333;-81
2023/03/20 07:41:59;;;;;;;6.60;5.97;;;;;;;13.45;71.03;99175.69;5075103;28;41799;-82
2023/03/20 07:44:42;;;;;;;7.27;6.57;;;;;;;13.59;70.60;99200.38;5090370;28;42721;-81
2023/03/20 07:47:11;;;;;;;6.50;5.80;;;;;;;13.45;70.64;99181.84;5091480;28;42162;-81
2023/03/20 07:49:40;;;;;;;6.53;5.93;;;;;;;13.56;70.45;99192.59;5074352;28;38661;-81
2023/03/20 07:52:09;;;;;;;6.13;5.53;;;;;;;13.60;70.70;99195.88;5074511;28;40696;-81
2023/03/20 07:54:38;;;;;;;6.33;5.83;;;;;;;13.50;70.32;99170.88;5074266;28;41307;-81
2023/03/20 07:57:06;;;;;;;6.50;5.90;;;;;;;13.53;70.05;99165.34;5091141;28;42224;-81
2023/03/20 07:59:34;;;;;;;7.10;5.90;;;;;;;13.81;70.03;99205.03;5074266;28;39050;-81
2023/03/20 08:02:02;;;;;;;6.53;5.87;;;;;;;13.91;69.44;99195.44;5074609;28;40639;-82
2023/03/20 08:04:30;;;;;;;7.07;6.47;;;;;;;13.94;69.33;99200.56;5090754;28;41617;-81
2023/03/20 08:06:58;;;;;;;6.60;5.93;;;;;;;13.93;68.66;99192.69;5074614;28;41110;-81
2023/03/20 08:09:25;;;;;;;6.90;6.20;;;;;;;14.06;68.35;99213.97;5074431;28;39193;-80
2023/03/20 08:11:55;;;;;;;6.93;5.97;;;;;;;14.05;68.51;99217.59;5074766;28;41408;-81
2023/03/20 08:14:23;;;;;;;6.97;6.27;;;;;;;14.06;68.20;99219.28;5074141;28;41663;-81
2023/03/20 08:16:51;;;;;;;7.00;6.30;;;;;;;14.07;68.08;99215.66;5090877;28;42427;-82
2023/03/20 08:19:19;;;;;;;6.93;6.33;;;;;;;14.07;68.13;99213.00;5074073;28;40708;-81
2023/03/20 08:21:48;;;;;;;6.67;5.90;;;;;;;14.14;67.80;99224.91;5090930;28;42206;-81
2023/03/20 08:24:16;;;;;;;6.47;5.87;;;;;;;14.03;68.13;99199.91;5073684;28;41791;-81
2023/03/20 08:26:45;;;;;;;6.83;6.00;;;;;;;14.13;67.70;99225.88;5091289;28;43032;-82
2023/03/20 08:29:16;;;;;;;6.47;5.87;;;;;;;14.01;68.04;99220.47;5090974;28;40197;-82
2023/03/20 08:31:43;;;;;;;6.47;5.87;;;;;;;13.99;68.12;99216.19;5091342;28;40856;-82
2023/03/20 08:34:11;;;;;;;6.07;5.47;;;;;;;13.95;68.03;99222.72;5091823;28;42781;-82
2023/03/20 08:36:39;;;;;;;7.20;6.43;;;;;;;13.99;67.97;99234.84;5094179;28;41101;-82
2023/03/20 08:39:07;;;;;;;6.50;5.90;;;;;;;13.91;68.02;99227.41;5094269;28;40047;-81
2023/03/20 08:41:38;;;;;;;6.77;6.07;;;;;;;13.93;67.98;99222.81;5077439;28;40884;-82
2023/03/20 08:44:06;;;;;;;7.90;7.10;;;;;;;13.99;68.15;99219.72;5093972;28;41854;-82
2023/03/20 08:46:36;;;;;;;8.13;7.17;;;;;;;14.03;67.96;99231.88;5095607;28;42112;-81
2023/03/20 08:49:04;;;;;;;7.27;6.57;;;;;;;14.10;67.84;99234.06;5094114;28;38935;-82
2023/03/20 08:51:32;;;;;;;8.23;7.43;;;;;;;14.18;67.76;99223.75;5077376;28;40804;-82
2023/03/20 08:54:00;;;;;;;6.97;6.30;;;;;;;14.24;67.54;99228.63;5076827;28;42012;-83
2023/03/20 08:56:28;;;;;;;10.17;7.73;;;;;;;14.36;67.41;99233.91;5094043;28;43285;-82
2023/03/20 08:58:56;;;;;;;7.57;6.87;;;;;;;14.35;67.10;99220.72;5093901;28;40168;-81
2023/03/20 09:01:24;;;;;;;11.00;8.23;;;;;;;14.50;66.82;99238.28;5094170;28;40906;-81
2023/03/20 09:03:53;;;;;;;8.93;7.70;;;;;;;14.52;66.61;99243.50;5076701;28;41827;-82
2023/03/20 09:06:21;;;;;;;7.57;6.83;;;;;;;14.61;66.17;99243.69;5076883;28;40512;-82
2023/03/20 09:08:49;;;;;;;7.50;6.80;;;;;;;14.67;66.44;99248.59;5093484;28;40399;-83
2023/03/20 09:11:17;;;;;;;7.47;6.63;;;;;;;14.68;66.04;99239.63;5077184;28;40895;-82
2023/03/20 09:13:45;;;;;;;7.93;7.23;;;;;;;14.59;66.02;99226.09;5093695;28;43030;-82
2023/03/20 09:16:12;;;;;;;9.17;7.93;;;;;;;14.58;65.79;99237.75;5077113;28;42181;-82
2023/03/20 09:18:40;;;;;;;7.47;6.77;;;;;;;14.65;65.82;99245.19;5093533;28;39238;-82
2023/03/20 09:21:22;;;;;;;9.70;7.63;;;;;;;14.77;65.29;99242.56;5093891;28;41233;-82
2023/03/20 09:23:49;;;;;;;7.97;7.17;;;;;;;14.97;65.30;99236.59;5093298;28;43054;-82
2023/03/20 09:26:17;;;;;;;7.60;6.80;;;;;;;15.16;64.71;99233.44;5094284;28;42307;-82
2023/03/20 09:28:45;;;;;;;7.13;6.43;;;;;;;15.34;64.69;99237.34;5094621;28;39949;-82
2023/03/20 09:31:13;;;;;;;10.93;9.63;;;;;;;15.36;64.05;99227.44;5093613;28;41772;-82
2023/03/20 09:33:41;;;;;;;13.07;11.73;;;;;;;15.63;63.47;99238.69;5076137;28;41767;-82
2023/03/20 09:36:10;;;;;;;9.77;8.77;;;;;;;15.73;63.09;99238.84;5093811;28;41537;-82
2023/03/20 09:38:40;;;;;;;9.70;8.70;;;;;;;15.79;62.25;99243.72;5076643;28;39001;-82
2023/03/20 09:41:18;;;;;;;9.07;8.17;;;;;;;15.72;62.01;99239.78;5077349;28;41365;-82
2023/03/20 09:43:58;;;;;;;8.87;7.77;;;;;;;15.73;61.76;99249.50;5076479;28;42727;-82
2023/03/20 09:46:40;;;;;;;10.00;9.03;;;;;;;15.53;62.33;99220.81;5092520;28;41419;-82
2023/03/20 09:49:17;;;;;;;9.30;8.40;;;;;;;15.70;62.14;99255.94;5093822;28;39485;-83
2023/03/20 09:51:51;;;;;;;9.43;8.47;;;;;;;15.69;62.00;99258.75;5090705;28;42239;-81
2023/03/20 09:54:26;;;;;;;13.37;11.70;;;;;;;15.63;61.94;99259.22;5087544;28;42605;-83
2023/03/20 09:56:56;;;;;;;12.97;11.67;;;;;;;15.56;62.17;99258.00;5073936;28;42479;-80
2023/03/20 09:59:27;;;;;;;12.33;10.80;;;;;;;15.49;62.64;99256.69;5092206;28;41660;-80
2023/03/20 10:01:59;;;;;;;12.60;11.30;;;;;;;15.29;62.23;99251.06;5074811;28;42109;-82
2023/03/20 10:04:29;;;;;;;17.33;15.37;;;;;;;15.28;62.81;99253.84;5089177;28;41786;-81
2023/03/20 10:06:57;;;;;;;16.17;14.33;;;;;;;15.21;63.18;99264.13;5071492;28;41064;-79
2023/03/20 10:09:29;;;;;;;12.13;10.90;;;;;;;15.14;63.30;99262.03;5071704;28;40230;-79
2023/03/20 10:12:09;;;;;;;12.07;9.97;;;;;;;15.16;63.34;99266.31;5079712;28;41762;-80
2023/03/20 10:14:51;;;;;;;13.13;10.90;;;;;;;15.20;63.48;99259.78;5075530;28;42917;-81
2023/03/20 10:17:38;;;;;;;13.37;10.50;;;;;;;15.25;63.40;99254.06;5075067;28;42259;-80
2023/03/20 10:20:13;;;;;;;11.77;9.30;;;;;;;15.39;63.11;99257.41;5097980;28;40955;-78
2023/03/20 10:22:45;;;;;;;10.30;9.27;;;;;;;15.57;62.65;99262.38;5083065;28;40897;-80
2023/03/20 10:25:24;;;;;;;12.43;9.90;;;;;;;15.83;62.39;99263.84;5071537;28;42579;-80
2023/03/20 10:27:58;;;;;;;12.90;11.60;;;;;;;15.98;61.37;99268.00;5073886;28;42697;-83
2023/03/20 10:30:42;;;;;;;12.20;10.73;;;;;;;15.76;60.91;99255.47;5092276;28;40490;-79
2023/03/20 10:33:25;;;;;;;10.90;9.80;;;;;;;15.51;61.56;99244.94;5075776;28;40492;-82
2023/03/20 10:36:06;;;;;;;11.40;10.23;;;;;;;15.45;61.96;99262.28;5092363;28;41877;-85
2023/03/20 10:38:42;;;;;;;11.37;10.10;;;;;;;15.30;62.44;99262.59;5089797;28;42276;-79
2023/03/20 10:41:17;;;;;;;13.20;11.37;;;;;;;15.11;62.93;99233.75;5091610;28;38986;-81
2023/03/20 10:43:48;;;;;;;12.67;10.30;;;;;;;15.30;62.82;99241.25;5075651;28;41447;-84
2023/03/20 10:46:25;;;;;;;12.13;10.43;;;;;;;15.58;62.19;99261.41;5091234;28;41634;-81
2023/03/20 10:48:59;;;;;;;13.27;11.63;;;;;;;15.68;62.00;99257.03;5075102;28;41210;-82
2023/03/20 10:51:36;;;;;;;13.30;11.27;;;;;;;15.61;62.32;99245.13;5072140;28;39934;-86
2023/03/20 10:54:13;;;;;;;12.03;10.73;;;;;;;15.69;62.23;99242.72;5071761;28;40726;-82
2023/03/20 10:56:47;;;;;;;16.60;14.83;;;;;;;15.86;61.94;99263.63;5080742;28;41818;-82
2023/03/20 10:59:21;;;;;;;15.23;12.10;;;;;;;16.01;61.33;99265.09;5092741;28;43037;-82
2023/03/20 11:01:49;;;;;;;11.73;10.13;;;;;;;16.33;60.72;99267.03;5088896;28;39852;-84
2023/03/20 11:04:17;;;;;;;13.17;11.03;;;;;;;16.48;59.63;99257.81;5092123;28;41114;-83
2023/03/20 11:06:53;;;;;;;13.13;11.53;;;;;;;16.88;58.50;99264.34;5071672;28;41881;-81
2023/03/20 11:09:22;;;;;;;12.03;9.63;;;;;;;17.10;57.39;99266.09;5071797;28;41730;-85
2023/03/20 11:11:56;;;;;;;13.03;11.67;;;;;;;17.31;57.23;99270.66;5065151;28;40008;-81
2023/03/20 11:14:26;;;;;;;9.53;8.43;;;;;;;17.24;57.05;99270.28;5074653;28;40464;-82
2023/03/20 11:16:55;;;;;;;13.07;11.30;;;;;;;17.03;57.48;99261.38;5092723;28;42498;-82
2023/03/20 11:19:24;;;;;;;15.70;13.33;;;;;;;16.93;57.41;99273.81;5075415;28;41347;-82
2023/03/20 11:21:55;;;;;;;12.77;11.47;;;;;;;16.57;57.72;99233.00;5074284;28;39348;-83
2023/03/20 11:24:27;;;;;;;10.70;9.53;;;;;;;16.65;58.12;99268.03;5075470;28;40822;-81
2023/03/20 11:27:06;;;;;;;15.43;12.23;;;;;;;16.56;57.88;99271.44;5092321;28;20203;-80
2023/03/20 11:29:35;;;;;;;13.87;11.90;;;;;;;16.53;57.88;99250.28;5074698;28;42470;-81
2023/03/20 11:32:16;;;;;;;16.97;14.07;;;;;;;16.55;57.71;99253.69;5091681;28;39856;-81
2023/03/20 11:34:44;;;;;;;12.53;10.30;;;;;;;16.71;57.91;99256.81;5091519;28;40572;-79
2023/03/20 11:37:24;;;;;;;10.77;9.53;;;;;;;16.79;57.61;99259.75;5091882;28;42592;-83
2023/03/20 11:40:00;;;;;;;10.27;8.40;;;;;;;16.81;57.30;99257.78;5073876;28;41153;-80
2023/03/20 11:42:30;;;;;;;10.63;9.53;;;;;;;16.86;57.34;99254.72;5088245;28;40671;-78
2023/03/20 11:45:01;;;;;;;10.43;8.20;;;;;;;16.87;57.44;99243.06;5090862;28;41625;-80
2023/03/20 11:47:34;;;;;;;10.83;8.93;;;;;;;17.10;56.44;99259.88;5088040;28;42757;-79
2023/03/20 11:50:07;;;;;;;11.77;10.40;;;;;;;16.97;56.53;99251.16;5091148;28;42407;-81
2023/03/20 11:52:38;;;;;;;12.10;10.40;;;;;;;16.85;57.08;99253.88;5092149;28;39697;-80
2023/03/20 11:55:20;;;;;;;8.60;7.80;;;;;;;16.70;57.36;99254.28;5074041;28;40428;-80
2023/03/20 11:57:50;;;;;;;12.30;10.53;;;;;;;16.44;57.73;99251.84;5087782;28;43791;-81
2023/03/20 12:00:20;;;;;;;11.43;10.13;;;;;;;16.21;58.70;99230.59;5091117;28;41116;-80